createdAt,value
2022-10-07T00:01:17.571Z,16.25
2022-10-07T00:03:45.799Z,16.25
2022-10-07T00:06:15.041Z,17.00
2022-10-07T00:08:45.283Z,13.50
2022-10-07T00:11:14.544Z,13.75
2022-10-07T00:13:43.997Z,8.75
2022-10-07T00:16:13.317Z,16.00
2022-10-07T00:18:42.095Z,18.50
2022-10-07T00:21:12.023Z,11.00
2022-10-07T00:23:41.851Z,12.50
2022-10-07T00:26:12.169Z,10.50
2022-10-07T00:28:40.632Z,16.00
2022-10-07T00:31:10.091Z,16.00
2022-10-07T00:33:40.837Z,13.00
2022-10-07T00:36:10.173Z,14.50
2022-10-07T00:38:38.841Z,12.50
2022-10-07T00:41:07.195Z,13.25
2022-10-07T00:43:36.702Z,11.25
2022-10-07T00:46:07.564Z,18.00
2022-10-07T00:48:37.860Z,17.50
2022-10-07T00:51:07.378Z,11.50
2022-10-07T00:53:36.976Z,13.00
2022-10-07T00:56:06.952Z,9.75
2022-10-07T00:58:38.353Z,9.50
2022-10-07T01:01:08.320Z,11.75
2022-10-07T01:03:37.430Z,11.50
2022-10-07T01:06:05.993Z,10.50
2022-10-07T01:08:34.835Z,8.50
2022-10-07T01:11:14.067Z,10.25
2022-10-07T01:13:47.883Z,12.50
2022-10-07T01:16:23.316Z,3.00
2022-10-07T01:18:55.441Z,10.50
2022-10-07T01:21:29.182Z,12.25
2022-10-07T01:24:05.830Z,10.00
2022-10-07T01:26:51.842Z,11.00
2022-10-07T01:29:24.957Z,7.50
2022-10-07T01:31:56.189Z,10.50
2022-10-07T01:34:27.025Z,10.75
2022-10-07T01:36:57.134Z,16.00
2022-10-07T01:39:27.873Z,9.00
2022-10-07T01:41:56.676Z,14.50
2022-10-07T01:44:28.680Z,10.75
2022-10-07T01:46:57.055Z,5.75
2022-10-07T01:49:25.485Z,6.50
2022-10-07T01:52:03.141Z,10.00
2022-10-07T01:54:38.929Z,10.25
2022-10-07T01:57:12.061Z,12.00
2022-10-07T01:59:58.891Z,11.75
2022-10-07T02:02:33.976Z,9.50
2022-10-07T02:05:05.004Z,11.50
2022-10-07T02:07:38.421Z,13.25
2022-10-07T02:10:12.510Z,13.50
2022-10-07T02:12:43.961Z,8.75
2022-10-07T02:15:15.544Z,10.25
2022-10-07T02:17:48.113Z,11.00
2022-10-07T02:20:17.543Z,10.25
2022-10-07T02:22:47.619Z,13.50
2022-10-07T02:25:16.556Z,3.50
2022-10-07T02:27:46.844Z,14.25
2022-10-07T02:30:16.942Z,14.00
2022-10-07T02:32:49.921Z,8.25
2022-10-07T02:35:23.338Z,9.25
2022-10-07T02:37:54.483Z,10.00
2022-10-07T02:40:26.847Z,14.00
2022-10-07T02:42:58.311Z,12.25
2022-10-07T02:45:30.359Z,8.50
2022-10-07T02:48:04.285Z,9.00
2022-10-07T02:50:37.363Z,12.75
2022-10-07T02:53:06.642Z,14.50
2022-10-07T02:55:35.253Z,9.50
2022-10-07T02:58:06.543Z,10.75
2022-10-07T03:00:37.739Z,11.00
2022-10-07T03:03:07.637Z,9.75
2022-10-07T03:05:49.446Z,13.75
2022-10-07T03:08:18.853Z,8.25
2022-10-07T03:10:47.712Z,8.00
2022-10-07T03:13:16.845Z,14.25
2022-10-07T03:15:49.880Z,10.50
2022-10-07T03:18:29.808Z,8.50
2022-10-07T03:21:18.149Z,7.50
2022-10-07T03:23:52.441Z,10.00
2022-10-07T03:26:22.589Z,4.75
2022-10-07T03:28:51.454Z,10.00
2022-10-07T03:31:21.075Z,9.25
2022-10-07T03:33:53.401Z,15.50
2022-10-07T03:36:21.707Z,9.75
2022-10-07T03:38:49.926Z,10.00
2022-10-07T03:41:18.062Z,10.75
2022-10-07T03:43:47.836Z,11.50
2022-10-07T03:46:21.261Z,6.00
2022-10-07T03:48:51.768Z,11.75
2022-10-07T03:51:21.825Z,10.50
2022-10-07T03:53:56.407Z,10.25
2022-10-07T03:56:26.774Z,6.00
2022-10-07T03:58:55.644Z,6.50
2022-10-07T04:01:25.402Z,6.50
2022-10-07T04:03:57.914Z,9.50
2022-10-07T04:06:29.215Z,10.00
2022-10-07T04:09:01.246Z,7.75
2022-10-07T04:11:30.301Z,9.25
2022-10-07T04:14:00.997Z,4.50
2022-10-07T04:16:34.711Z,8.00
2022-10-07T04:19:07.323Z,7.00
2022-10-07T04:21:37.094Z,6.50
2022-10-07T04:24:05.921Z,8.50
2022-10-07T04:26:34.223Z,9.75
2022-10-07T04:29:03.364Z,5.75
2022-10-07T04:31:32.191Z,9.25
2022-10-07T04:34:05.185Z,6.25
2022-10-07T04:36:38.475Z,5.50
2022-10-07T04:39:10.170Z,8.00
2022-10-07T04:41:43.134Z,6.00
2022-10-07T04:44:17.239Z,2.50
2022-10-07T04:46:56.752Z,4.00
2022-10-07T04:49:27.331Z,2.00
2022-10-07T04:51:58.282Z,9.25
2022-10-07T04:54:32.047Z,5.25
2022-10-07T04:57:00.791Z,10.50
2022-10-07T04:59:30.314Z,9.25
2022-10-07T05:01:59.840Z,7.00
2022-10-07T05:04:30.043Z,7.25
2022-10-07T05:07:00.830Z,8.00
2022-10-07T05:09:30.711Z,5.00
2022-10-07T05:11:58.876Z,6.00
2022-10-07T05:14:26.951Z,7.25
2022-10-07T05:16:58.462Z,8.25
2022-10-07T05:19:31.049Z,12.00
2022-10-07T05:22:00.780Z,3.00
2022-10-07T05:24:29.073Z,4.00
2022-10-07T05:26:57.522Z,6.50
2022-10-07T05:29:25.822Z,5.00
2022-10-07T05:32:00.870Z,6.50
2022-10-07T05:34:32.236Z,5.75
2022-10-07T05:37:04.126Z,2.75
2022-10-07T05:39:33.153Z,5.50
2022-10-07T05:42:13.856Z,3.00
2022-10-07T05:44:50.449Z,4.50
2022-10-07T05:47:20.522Z,5.50
2022-10-07T05:49:50.061Z,1.00
2022-10-07T05:52:21.475Z,4.00
2022-10-07T05:54:52.621Z,6.00
2022-10-07T05:57:22.981Z,2.00
2022-10-07T05:59:52.885Z,2.75
2022-10-07T06:02:22.797Z,3.00
2022-10-07T06:04:52.300Z,2.00
2022-10-07T06:07:29.019Z,4.25
2022-10-07T06:10:16.633Z,5.50
2022-10-07T06:13:02.900Z,5.00
2022-10-07T06:15:32.385Z,5.25
2022-10-07T06:18:01.082Z,1.00
2022-10-07T06:20:29.895Z,5.00
2022-10-07T06:23:00.827Z,2.00
2022-10-07T06:25:30.966Z,4.25
2022-10-07T06:28:01.239Z,3.00
2022-10-07T06:30:31.068Z,2.00
2022-10-07T06:33:02.263Z,3.25
2022-10-07T06:35:31.872Z,3.50
2022-10-07T06:38:01.484Z,2.00
2022-10-07T06:40:30.004Z,4.00
2022-10-07T06:42:58.138Z,3.25
2022-10-07T06:45:49.325Z,3.50
2022-10-07T06:48:17.804Z,4.50
2022-10-07T06:50:51.071Z,2.20
2022-10-07T06:53:20.782Z,5.00
2022-10-07T06:55:51.684Z,3.50
2022-10-07T06:58:22.496Z,3.75
2022-10-07T07:00:52.226Z,4.00
2022-10-07T07:03:23.178Z,2.00
2022-10-07T07:05:54.505Z,5.75
2022-10-07T07:08:29.351Z,3.00
2022-10-07T07:10:57.824Z,1.75
2022-10-07T07:13:26.719Z,2.00
2022-10-07T07:15:58.792Z,3.00
2022-10-07T07:18:30.922Z,1.25
2022-10-07T07:21:03.072Z,2.25
2022-10-07T07:23:32.581Z,2.25
2022-10-07T07:26:01.983Z,2.00
2022-10-07T07:28:31.554Z,2.75
2022-10-07T07:30:59.894Z,2.25
2022-10-07T07:33:28.692Z,0.60
2022-10-07T07:35:57.796Z,1.00
2022-10-07T07:38:26.429Z,5.00
2022-10-07T07:40:57.997Z,1.50
2022-10-07T07:43:26.350Z,1.25
2022-10-07T07:45:55.550Z,1.00
2022-10-07T07:48:23.924Z,1.50
2022-10-07T07:50:52.274Z,1.25
2022-10-07T07:53:21.339Z,2.00
2022-10-07T07:55:53.584Z,1.25
2022-10-07T07:58:24.418Z,2.00
2022-10-07T08:01:00.073Z,1.25
2022-10-07T08:03:29.465Z,5.50
2022-10-07T08:06:01.903Z,2.00
2022-10-07T08:08:32.095Z,0.75
2022-10-07T08:11:07.314Z,0.00
2022-10-07T08:13:39.476Z,2.00
2022-10-07T08:16:08.147Z,2.00
2022-10-07T08:18:37.091Z,1.75
2022-10-07T08:21:06.221Z,1.00
2022-10-07T08:23:35.799Z,1.25
2022-10-07T08:26:04.797Z,2.00
2022-10-07T08:28:34.558Z,3.00
2022-10-07T08:31:05.886Z,1.75
2022-10-07T08:33:35.511Z,0.00
2022-10-07T08:36:09.662Z,1.00
2022-10-07T08:38:40.274Z,0.50
2022-10-07T08:45:47.764Z,1.50
2022-10-07T08:48:23.530Z,1.75
2022-10-07T08:50:56.868Z,1.00
2022-10-07T08:53:27.745Z,1.00
2022-10-07T08:55:57.268Z,1.00
2022-10-07T08:58:36.310Z,2.00
2022-10-07T09:01:17.744Z,1.50
2022-10-07T09:03:52.342Z,0.00
2022-10-07T09:06:28.115Z,1.00
2022-10-07T09:09:00.501Z,1.00
2022-10-07T09:11:30.318Z,1.75
2022-10-07T09:14:01.607Z,3.00
2022-10-07T09:16:33.522Z,2.00
2022-10-07T09:19:04.039Z,3.00
2022-10-07T09:21:37.096Z,2.25
2022-10-07T09:24:20.411Z,1.00
2022-10-07T09:26:50.118Z,1.00
2022-10-07T09:29:21.156Z,1.50
2022-10-07T09:31:50.904Z,3.00
2022-10-07T09:34:23.478Z,2.00
2022-10-07T09:37:12.145Z,2.00
2022-10-07T09:39:42.715Z,2.25
2022-10-07T09:42:39.908Z,0.00
2022-10-07T09:45:20.989Z,1.00
2022-10-07T09:48:15.048Z,3.40
2022-10-07T09:50:46.921Z,1.60
2022-10-07T09:53:37.395Z,1.20
2022-10-07T09:56:08.290Z,0.00
2022-10-07T09:58:36.987Z,3.00
2022-10-07T10:01:12.237Z,2.00
2022-10-07T10:03:41.145Z,2.00
2022-10-07T10:06:41.418Z,1.00
2022-10-07T10:09:16.855Z,1.60
2022-10-07T10:33:01.509Z,2.00
2022-10-07T10:48:06.216Z,1.50
2022-10-07T10:50:43.558Z,2.00
2022-10-07T10:53:19.714Z,0.00
2022-10-07T10:56:00.802Z,0.00
2022-10-07T10:59:05.940Z,1.00
2022-10-07T11:01:40.285Z,1.00
2022-10-07T11:04:42.632Z,2.50
2022-10-07T11:07:18.334Z,1.00
2022-10-07T11:09:56.552Z,2.00
2022-10-07T11:12:27.542Z,0.00
2022-10-07T11:15:20.665Z,0.25
2022-10-07T11:17:50.914Z,1.00
2022-10-07T11:20:23.193Z,1.00
2022-10-07T11:23:00.307Z,2.50
2022-10-07T11:25:37.504Z,2.50
2022-10-07T11:28:11.111Z,2.20
2022-10-07T11:30:44.167Z,0.60
2022-10-07T11:33:16.635Z,1.00
2022-10-07T11:35:48.779Z,1.00
2022-10-07T11:38:22.895Z,4.75
2022-10-07T11:40:52.805Z,2.00
2022-10-07T11:43:27.337Z,0.80
2022-10-07T11:45:59.063Z,0.00
2022-10-07T11:48:31.261Z,0.60
2022-10-07T11:51:02.543Z,0.60
2022-10-07T11:53:37.255Z,1.00
2022-10-07T11:56:07.358Z,2.40
2022-10-07T11:58:44.434Z,1.60
2022-10-07T12:01:32.121Z,2.00
2022-10-07T12:04:19.328Z,1.00
2022-10-07T12:07:04.176Z,0.00
2022-10-07T12:09:50.984Z,1.50
2022-10-07T12:12:25.018Z,2.00
2022-10-07T12:15:00.646Z,0.80
2022-10-07T12:17:30.587Z,2.80
2022-10-07T12:20:18.428Z,1.00
2022-10-07T12:22:47.726Z,1.00
2022-10-07T12:25:32.602Z,0.80
2022-10-07T12:28:02.715Z,0.40
2022-10-07T12:30:42.635Z,1.20
2022-10-07T12:33:18.177Z,2.00
2022-10-07T12:35:54.512Z,1.20
2022-10-07T12:38:27.829Z,0.00
2022-10-07T12:41:19.235Z,0.20
2022-10-07T12:43:52.441Z,1.00
2022-10-07T12:46:21.968Z,1.40
2022-10-07T12:48:54.027Z,0.40
2022-10-07T12:51:26.174Z,1.40
2022-10-07T12:53:54.683Z,2.00
2022-10-07T12:56:24.303Z,2.25
2022-10-07T12:59:28.536Z,1.50
2022-10-07T13:02:10.687Z,0.75
2022-10-07T13:04:58.156Z,1.00
2022-10-07T13:07:50.342Z,1.00
2022-10-07T13:10:37.341Z,1.00
2022-10-07T13:13:30.825Z,2.00
2022-10-07T13:16:04.283Z,1.25
2022-10-07T13:18:38.689Z,2.00
2022-10-07T13:21:13.950Z,1.00
2022-10-07T13:23:49.714Z,2.00
2022-10-07T13:26:18.266Z,1.75
2022-10-07T13:28:48.751Z,2.00
2022-10-07T13:31:20.991Z,1.00
2022-10-07T13:33:51.747Z,0.00
2022-10-07T13:36:22.710Z,1.50
2022-10-07T13:38:51.795Z,1.75
2022-10-07T13:41:22.683Z,4.00
2022-10-07T13:43:54.809Z,2.00
2022-10-07T13:46:26.012Z,2.50
2022-10-07T13:48:56.536Z,1.75
2022-10-07T13:51:28.563Z,2.00
2022-10-07T13:53:58.304Z,3.00
2022-10-07T13:56:32.653Z,2.25
2022-10-07T13:59:01.323Z,1.00
2022-10-07T14:01:32.922Z,0.20
2022-10-07T14:04:02.099Z,3.25
2022-10-07T14:06:37.795Z,2.25
2022-10-07T14:09:17.504Z,3.50
2022-10-07T14:11:47.057Z,34.00
2022-10-07T14:14:23.095Z,2.25
2022-10-07T14:16:55.891Z,2.00
2022-10-07T14:19:24.391Z,0.75
2022-10-07T14:21:53.829Z,1.25
2022-10-07T14:24:22.252Z,2.00
2022-10-07T14:26:50.852Z,0.00
2022-10-07T14:29:36.084Z,3.00
2022-10-07T14:32:36.703Z,2.75
2022-10-07T14:35:22.230Z,2.50
2022-10-07T14:37:50.763Z,1.75
2022-10-07T14:40:20.569Z,1.75
2022-10-07T14:42:49.318Z,3.00
2022-10-07T14:45:18.670Z,2.00
2022-10-07T14:47:49.341Z,3.50
2022-10-07T14:50:21.590Z,0.00
2022-10-07T14:52:54.658Z,5.25
2022-10-07T14:55:25.078Z,3.25
2022-10-07T14:57:53.770Z,2.00
2022-10-07T15:00:23.206Z,2.00
2022-10-07T15:02:53.334Z,3.00
2022-10-07T15:05:22.861Z,3.25
2022-10-07T15:07:51.694Z,2.00
2022-10-07T15:10:21.162Z,1.75
2022-10-07T15:12:51.910Z,2.75
2022-10-07T15:15:20.354Z,0.75
2022-10-07T15:17:49.173Z,2.25
2022-10-07T15:20:21.655Z,1.50
2022-10-07T15:22:51.841Z,2.00
2022-10-07T15:25:21.263Z,2.50
2022-10-07T15:27:49.636Z,1.00
2022-10-07T15:30:18.979Z,5.25
2022-10-07T15:32:47.682Z,7.25
2022-10-07T15:35:16.293Z,2.00
2022-10-07T15:37:46.095Z,4.25
2022-10-07T15:40:14.826Z,2.50
2022-10-07T15:42:44.920Z,5.00
2022-10-07T15:45:14.328Z,5.75
2022-10-07T15:47:44.148Z,5.75
2022-10-07T15:50:12.796Z,3.00
2022-10-07T15:52:41.580Z,5.00
2022-10-07T15:55:14.890Z,1.00
2022-10-07T15:57:43.542Z,3.50
2022-10-07T16:00:12.798Z,2.00
2022-10-07T16:02:44.075Z,5.00
2022-10-07T16:05:13.480Z,3.00
2022-10-07T16:07:42.276Z,4.00
2022-10-07T16:10:13.265Z,1.75
2022-10-07T16:12:43.279Z,3.75
2022-10-07T16:15:12.623Z,2.75
2022-10-07T16:17:41.146Z,4.00
2022-10-07T16:20:11.764Z,1.00
2022-10-07T16:22:51.068Z,3.25
2022-10-07T16:25:21.582Z,3.00
2022-10-07T16:28:07.903Z,7.00
2022-10-07T16:30:43.471Z,5.25
2022-10-07T16:33:11.936Z,1.50
2022-10-07T16:35:42.521Z,4.00
2022-10-07T16:38:11.053Z,3.50
2022-10-07T16:40:42.437Z,1.75
2022-10-07T16:43:11.007Z,2.50
2022-10-07T16:45:44.719Z,4.25
2022-10-07T16:48:17.582Z,4.00
2022-10-07T16:50:49.913Z,3.50
2022-10-07T16:53:18.117Z,3.00
2022-10-07T16:55:47.823Z,1.75
2022-10-07T16:58:23.212Z,5.00
2022-10-07T17:00:54.582Z,1.25
2022-10-07T17:03:23.484Z,3.50
2022-10-07T17:05:56.246Z,3.00
2022-10-07T17:08:25.062Z,2.25
2022-10-07T17:10:55.009Z,4.00
2022-10-07T17:13:23.251Z,5.00
2022-10-07T17:15:52.772Z,5.50
2022-10-07T17:18:21.457Z,5.00
2022-10-07T17:20:57.847Z,2.50
2022-10-07T17:23:27.584Z,2.50
2022-10-07T17:25:57.355Z,2.00
2022-10-07T17:28:28.734Z,7.00
2022-10-07T17:30:58.752Z,5.25
2022-10-07T17:33:27.076Z,3.00
2022-10-07T17:39:54.855Z,3.50
2022-10-07T17:42:26.405Z,2.00
2022-10-07T17:44:55.278Z,3.50
2022-10-07T17:47:23.587Z,3.00
2022-10-07T17:49:57.003Z,3.00
2022-10-07T17:52:27.610Z,4.00
2022-10-07T17:54:57.330Z,1.75
2022-10-07T17:57:27.179Z,3.25
2022-10-07T17:59:55.773Z,0.25
2022-10-07T18:02:24.090Z,5.25
2022-10-07T18:04:53.250Z,2.50
2022-10-07T18:07:31.858Z,2.00
2022-10-07T18:10:43.482Z,5.75
2022-10-07T18:16:43.099Z,5.25
2022-10-07T18:19:13.188Z,2.75
2022-10-07T18:22:21.513Z,5.00
2022-10-07T18:25:08.450Z,2.00
2022-10-07T18:30:29.901Z,2.25
2022-10-07T18:36:55.889Z,6.25
2022-10-07T18:39:27.480Z,2.00
2022-10-07T18:41:57.500Z,1.50
2022-10-07T18:44:26.396Z,2.00
2022-10-07T18:46:56.468Z,3.00
2022-10-07T18:49:25.002Z,5.50
2022-10-07T18:51:53.883Z,2.25
2022-10-07T18:54:22.522Z,5.00
2022-10-07T18:56:52.339Z,4.50
2022-10-07T18:59:20.852Z,5.75
2022-10-07T19:01:52.401Z,4.00
2022-10-07T19:04:23.420Z,3.00
2022-10-07T19:06:51.911Z,2.25
2022-10-07T19:09:21.229Z,3.75
2022-10-07T19:11:50.016Z,4.25
2022-10-07T19:14:21.946Z,2.50
2022-10-07T19:17:04.191Z,4.00
2022-10-07T19:19:43.664Z,3.00
2022-10-07T19:22:17.803Z,5.25
2022-10-07T19:25:16.282Z,7.00
2022-10-07T19:27:45.595Z,4.00
2022-10-07T19:30:14.648Z,4.50
2022-10-07T19:32:46.788Z,5.75
2022-10-07T19:35:16.990Z,5.00
2022-10-07T19:37:46.459Z,7.50
2022-10-07T19:40:19.688Z,4.50
2022-10-07T19:42:52.270Z,3.00
2022-10-07T19:45:24.136Z,5.75
2022-10-07T19:47:54.036Z,4.50
2022-10-07T19:50:24.455Z,5.00
2022-10-07T19:52:57.065Z,3.50
2022-10-07T19:55:29.427Z,7.25
2022-10-07T19:57:58.250Z,5.50
2022-10-07T20:00:30.410Z,6.00
2022-10-07T20:02:59.207Z,6.25
2022-10-07T20:05:29.632Z,6.75
2022-10-07T20:07:58.851Z,5.25
2022-10-07T20:10:27.982Z,6.25
2022-10-07T20:12:56.379Z,6.50
2022-10-07T20:15:25.652Z,8.00
2022-10-07T20:17:55.085Z,2.50
2022-10-07T20:20:27.075Z,1.25
2022-10-07T20:22:57.324Z,6.00
2022-10-07T20:25:25.902Z,7.00
2022-10-07T20:28:01.228Z,5.50
2022-10-07T20:30:32.771Z,5.75
2022-10-07T20:33:02.622Z,4.00
2022-10-07T20:35:33.949Z,5.25
2022-10-07T20:38:07.302Z,6.75
2022-10-07T20:40:52.753Z,2.00
2022-10-07T20:43:21.437Z,8.75
2022-10-07T20:45:59.543Z,4.00
2022-10-07T20:48:31.783Z,5.00
2022-10-07T20:51:08.556Z,2.75
2022-10-07T20:53:42.994Z,6.00
2022-10-07T20:56:11.766Z,6.50
2022-10-07T20:58:40.357Z,5.50
2022-10-07T21:01:09.886Z,7.67
2022-10-07T21:03:38.565Z,7.25
2022-10-07T21:06:06.986Z,7.50
2022-10-07T21:08:35.315Z,7.25
2022-10-07T21:11:06.417Z,5.00
2022-10-07T21:13:34.996Z,8.75
2022-10-07T21:16:05.592Z,5.25
2022-10-07T21:18:33.885Z,0.75
2022-10-07T21:21:02.580Z,2.50
2022-10-07T21:23:31.158Z,6.00
2022-10-07T21:26:01.202Z,8.00
2022-10-07T21:28:32.978Z,5.00
2022-10-07T21:31:02.914Z,4.00
2022-10-07T21:33:31.474Z,9.75
2022-10-07T21:36:00.591Z,4.00
2022-10-07T21:38:29.057Z,9.25
2022-10-07T21:41:00.452Z,6.75
2022-10-07T21:43:30.423Z,5.75
2022-10-07T21:46:00.300Z,8.00
2022-10-07T21:48:30.395Z,5.00
2022-10-07T21:50:59.291Z,8.50
2022-10-07T21:53:27.780Z,6.00
2022-10-07T21:55:56.783Z,6.50
2022-10-07T21:58:26.851Z,3.00
2022-10-07T22:00:56.728Z,8.00
2022-10-07T22:03:25.068Z,6.00
2022-10-07T22:05:53.306Z,8.75
2022-10-07T22:08:35.570Z,5.50
2022-10-07T22:11:04.761Z,12.00
2022-10-07T22:13:33.651Z,9.00
2022-10-07T22:16:03.907Z,9.25
2022-10-07T22:18:33.775Z,9.75
2022-10-07T22:21:02.355Z,10.25
2022-10-07T22:23:30.747Z,12.50
2022-10-07T22:26:02.399Z,9.75
2022-10-07T22:28:31.441Z,9.50
2022-10-07T22:31:00.327Z,12.00
2022-10-07T22:33:29.949Z,6.25
2022-10-07T22:35:57.093Z,5.50
2022-10-07T22:38:25.994Z,10.25
2022-10-07T22:40:56.373Z,11.50
2022-10-07T22:43:24.676Z,11.00
2022-10-07T22:45:57.524Z,5.25
2022-10-07T22:48:25.727Z,8.50
2022-10-07T22:50:55.243Z,9.00
2022-10-07T22:53:24.105Z,9.75
2022-10-07T22:55:52.435Z,13.00
2022-10-07T22:58:20.548Z,11.00
2022-10-07T23:00:51.021Z,11.00
2022-10-07T23:03:19.338Z,8.50
2022-10-07T23:05:50.515Z,9.50
2022-10-07T23:08:20.031Z,8.75
2022-10-07T23:10:56.131Z,10.25
2022-10-07T23:13:26.872Z,10.00
2022-10-07T23:15:59.023Z,14.50
2022-10-07T23:18:27.726Z,10.50
2022-10-07T23:20:59.769Z,18.25
2022-10-07T23:23:29.836Z,9.75
2022-10-07T23:25:58.188Z,14.75
2022-10-07T23:28:28.883Z,11.25
2022-10-07T23:30:58.991Z,14.25
2022-10-07T23:33:27.109Z,13.25
2022-10-07T23:35:56.803Z,18.50
2022-10-07T23:38:27.212Z,14.25
2022-10-07T23:40:56.972Z,8.25
2022-10-07T23:43:25.085Z,10.00
2022-10-07T23:45:53.502Z,11.00
2022-10-07T23:48:21.991Z,13.00
2022-10-07T23:50:50.145Z,9.75
2022-10-07T23:53:20.219Z,9.75
2022-10-07T23:55:48.916Z,14.25
2022-10-07T23:58:19.608Z,13.00
